createdAt,value
2022-12-14T00:02:33.517Z,20.75
2022-12-14T00:07:38.109Z,21.75
2022-12-14T00:12:42.808Z,23.25
2022-12-14T00:17:47.454Z,19.75
2022-12-14T00:22:52.076Z,18.50
2022-12-14T00:27:57.142Z,25.25
2022-12-14T00:33:01.599Z,19.75
2022-12-14T00:38:06.105Z,26.75
2022-12-14T00:43:10.576Z,23.50
2022-12-14T00:48:15.473Z,18.25
2022-12-14T00:53:20.398Z,28.75
2022-12-14T00:58:26.482Z,24.50
2022-12-14T01:03:31.848Z,22.00
2022-12-14T01:08:37.748Z,27.00
2022-12-14T01:13:42.912Z,23.50
2022-12-14T01:18:46.929Z,22.75
2022-12-14T01:23:55.697Z,23.00
2022-12-14T01:29:00.981Z,18.50
2022-12-14T01:34:05.636Z,20.50
2022-12-14T01:39:17.475Z,19.75
2022-12-14T01:44:21.943Z,19.00
2022-12-14T01:49:32.377Z,16.00
2022-12-14T01:54:39.697Z,28.75
2022-12-14T01:59:46.558Z,20.00
2022-12-14T02:04:55.427Z,17.75
2022-12-14T02:10:04.164Z,19.75
2022-12-14T02:15:09.346Z,26.75
2022-12-14T02:20:15.079Z,16.75
2022-12-14T02:25:35.411Z,17.50
2022-12-14T02:30:41.563Z,25.00
2022-12-14T02:36:01.102Z,17.50
2022-12-14T02:41:08.616Z,20.25
2022-12-14T02:46:22.301Z,20.00
2022-12-14T02:51:29.827Z,16.00
2022-12-14T02:56:46.914Z,17.25
2022-12-14T03:01:52.623Z,18.75
2022-12-14T03:07:17.653Z,17.75
2022-12-14T03:12:23.720Z,17.00
2022-12-14T03:17:30.013Z,15.00
2022-12-14T03:22:42.029Z,18.25
2022-12-14T03:27:51.232Z,15.00
2022-12-14T03:32:56.947Z,18.25
2022-12-14T03:38:01.524Z,16.50
2022-12-14T03:43:17.993Z,19.25
2022-12-14T03:48:42.251Z,20.75
2022-12-14T03:53:53.316Z,20.00
2022-12-14T03:59:03.554Z,21.00
2022-12-14T04:04:19.518Z,17.00
2022-12-14T04:09:35.817Z,15.50
2022-12-14T04:15:02.982Z,17.25
2022-12-14T04:20:10.134Z,15.25
2022-12-14T04:25:36.928Z,15.75
2022-12-14T04:30:42.376Z,17.00
2022-12-14T04:35:46.732Z,17.00
2022-12-14T04:40:53.898Z,18.75
2022-12-14T04:46:01.210Z,15.50
2022-12-14T04:51:17.720Z,22.75
2022-12-14T04:56:29.574Z,15.25
2022-12-14T05:01:37.000Z,16.00
2022-12-14T05:06:54.144Z,18.75
2022-12-14T05:12:18.731Z,18.00
2022-12-14T05:17:23.200Z,17.25
2022-12-14T05:22:27.802Z,18.75
2022-12-14T05:27:34.083Z,17.00
2022-12-14T05:32:38.694Z,16.50
2022-12-14T05:37:43.963Z,21.00
2022-12-14T05:42:53.903Z,18.50
2022-12-14T05:48:00.105Z,23.25
2022-12-14T05:53:04.789Z,19.50
2022-12-14T05:58:09.495Z,17.50
2022-12-14T06:03:14.070Z,24.25
2022-12-14T06:08:18.911Z,22.75
2022-12-14T06:13:24.090Z,29.25
2022-12-14T06:18:29.805Z,18.00
2022-12-14T06:23:34.561Z,19.75
2022-12-14T06:28:39.608Z,23.25
2022-12-14T06:33:44.591Z,22.00
2022-12-14T06:38:50.056Z,20.50
2022-12-14T06:43:55.226Z,25.00
2022-12-14T06:48:59.902Z,17.75
2022-12-14T06:54:05.825Z,17.75
2022-12-14T06:59:11.025Z,15.75
2022-12-14T07:04:17.895Z,22.25
2022-12-14T07:09:22.761Z,20.50
2022-12-14T07:14:26.964Z,16.50
2022-12-14T07:19:31.618Z,20.50
2022-12-14T07:24:36.363Z,18.50
2022-12-14T07:29:41.174Z,22.50
2022-12-14T07:34:45.869Z,31.00
2022-12-14T07:39:50.485Z,19.75
2022-12-14T07:44:54.869Z,19.25
2022-12-14T07:49:59.744Z,22.75
2022-12-14T07:55:04.911Z,25.00
2022-12-14T08:00:10.056Z,20.25
2022-12-14T08:05:17.822Z,22.50
2022-12-14T08:10:22.403Z,21.00
2022-12-14T08:15:26.600Z,21.25
2022-12-14T08:20:31.439Z,19.75
2022-12-14T08:25:36.091Z,21.50
2022-12-14T08:30:41.415Z,22.00
2022-12-14T08:35:46.669Z,32.50
2022-12-14T08:40:51.310Z,41.25
2022-12-14T08:45:56.658Z,45.25
2022-12-14T08:51:04.751Z,44.75
2022-12-14T08:56:15.094Z,45.25
2022-12-14T09:01:33.443Z,49.75
2022-12-14T09:06:40.723Z,47.00
2022-12-14T09:11:45.953Z,48.00
2022-12-14T09:16:50.094Z,53.75
2022-12-14T09:21:55.105Z,48.25
2022-12-14T09:27:02.855Z,55.50
2022-12-14T09:32:07.493Z,47.25
2022-12-14T09:37:12.415Z,49.00
2022-12-14T09:42:19.757Z,49.25
2022-12-14T09:47:29.569Z,47.75
2022-12-14T09:52:52.586Z,45.00
2022-12-14T09:58:21.439Z,48.25
2022-12-14T10:03:51.016Z,47.25
2022-12-14T10:09:01.267Z,46.00
2022-12-14T10:14:15.610Z,45.00
2022-12-14T10:19:35.451Z,47.00
2022-12-14T10:24:43.984Z,41.00
2022-12-14T10:29:51.067Z,39.50
2022-12-14T10:34:55.605Z,44.00
2022-12-14T10:40:12.429Z,39.00
2022-12-14T10:51:01.370Z,46.50
2022-12-14T10:56:10.237Z,38.00
2022-12-14T11:01:16.952Z,32.25
2022-12-14T11:06:22.132Z,35.75
2022-12-14T11:11:27.724Z,35.75
2022-12-14T11:16:37.511Z,36.50
2022-12-14T11:21:42.148Z,33.25
2022-12-14T11:26:47.163Z,41.25
2022-12-14T11:31:55.376Z,35.75
2022-12-14T11:37:13.146Z,33.25
2022-12-14T11:42:19.552Z,47.25
2022-12-14T11:47:26.731Z,30.00
2022-12-14T11:52:40.382Z,37.00
2022-12-14T11:57:49.083Z,39.75
2022-12-14T12:03:02.676Z,33.50
2022-12-14T12:08:08.873Z,28.50
2022-12-14T12:13:31.175Z,35.75
2022-12-14T12:18:46.204Z,34.00
2022-12-14T12:24:00.226Z,23.50
2022-12-14T12:29:08.323Z,29.00
2022-12-14T12:34:19.028Z,24.25
2022-12-14T12:39:26.035Z,22.50
2022-12-14T12:44:49.697Z,33.75
2022-12-14T12:49:54.400Z,31.00
2022-12-14T12:55:02.160Z,31.50
2022-12-14T13:00:08.376Z,34.00
2022-12-14T13:05:45.201Z,34.75
2022-12-14T13:11:02.390Z,35.25
2022-12-14T13:16:12.845Z,37.50
2022-12-14T13:21:20.686Z,32.00
2022-12-14T13:26:57.863Z,35.25
2022-12-14T13:32:21.953Z,43.50
2022-12-14T13:37:32.132Z,31.00
2022-12-14T13:42:45.774Z,30.25
2022-12-14T13:47:55.369Z,38.25
2022-12-14T13:53:03.851Z,30.50
2022-12-14T13:58:12.914Z,35.25
2022-12-14T14:03:35.897Z,32.50
2022-12-14T14:08:43.101Z,37.75
2022-12-14T14:13:51.879Z,31.00
2022-12-14T14:19:15.915Z,32.50
2022-12-14T14:24:27.940Z,29.50
2022-12-14T14:29:33.608Z,36.50
2022-12-14T14:34:44.292Z,33.75
2022-12-14T14:40:04.903Z,31.75
2022-12-14T14:45:29.337Z,29.75
2022-12-14T14:50:40.327Z,41.25
2022-12-14T14:55:54.343Z,47.00
2022-12-14T15:01:05.258Z,63.25
2022-12-14T15:06:16.778Z,66.50
2022-12-14T15:11:23.294Z,70.50
2022-12-14T15:16:32.752Z,67.25
2022-12-14T15:21:39.806Z,65.25
2022-12-14T15:26:46.138Z,68.75
2022-12-14T15:31:59.508Z,66.75
2022-12-14T15:37:04.958Z,65.00
2022-12-14T15:42:16.789Z,69.00
2022-12-14T15:47:39.188Z,61.50
2022-12-14T15:52:45.189Z,57.50
2022-12-14T15:57:50.793Z,59.75
2022-12-14T16:02:55.764Z,56.00
2022-12-14T16:08:00.551Z,51.50
2022-12-14T16:13:08.620Z,53.25
2022-12-14T16:18:13.897Z,64.75
2022-12-14T16:23:18.633Z,49.75
2022-12-14T16:28:31.132Z,57.25
2022-12-14T16:33:37.052Z,55.50
2022-12-14T16:38:57.331Z,48.00
2022-12-14T16:44:02.978Z,45.75
2022-12-14T16:49:24.674Z,45.50
2022-12-14T16:54:33.653Z,49.75
2022-12-14T16:59:38.292Z,42.00
2022-12-14T17:04:44.072Z,48.75
2022-12-14T17:09:48.375Z,40.50
2022-12-14T17:14:52.862Z,39.50
2022-12-14T17:19:58.759Z,38.25
2022-12-14T17:25:03.750Z,39.00
2022-12-14T17:30:09.167Z,44.50
2022-12-14T17:35:17.892Z,45.75
2022-12-14T17:40:22.823Z,37.50
2022-12-14T17:45:28.779Z,41.25
2022-12-14T17:50:33.516Z,40.50
2022-12-14T17:55:37.729Z,37.75
2022-12-14T18:00:59.981Z,40.00
2022-12-14T18:06:05.853Z,42.00
2022-12-14T18:11:13.977Z,39.75
2022-12-14T18:16:19.676Z,31.75
2022-12-14T18:21:29.315Z,32.75
2022-12-14T18:26:33.872Z,30.25
2022-12-14T18:31:40.101Z,32.75
2022-12-14T18:36:44.713Z,33.50
2022-12-14T18:41:48.853Z,30.00
2022-12-14T18:46:53.218Z,31.25
2022-12-14T18:51:58.207Z,31.75
2022-12-14T18:57:02.842Z,30.00
2022-12-14T19:02:07.851Z,36.00
2022-12-14T19:07:12.427Z,37.00
2022-12-14T19:12:16.709Z,31.25
2022-12-14T19:17:21.931Z,45.00
2022-12-14T19:22:28.479Z,36.50
2022-12-14T19:28:11.504Z,28.50
2022-12-14T19:32:59.969Z,34.25
2022-12-14T19:38:04.640Z,38.50
2022-12-14T19:43:08.862Z,29.75
2022-12-14T19:48:13.568Z,34.50
2022-12-14T19:53:23.224Z,29.75
2022-12-14T19:58:32.062Z,37.00
2022-12-14T20:03:37.587Z,27.75
2022-12-14T20:08:42.598Z,27.25
2022-12-14T20:13:49.414Z,28.50
2022-12-14T20:18:58.941Z,25.75
2022-12-14T20:24:03.730Z,32.25
2022-12-14T20:29:08.542Z,24.00
2022-12-14T20:34:13.006Z,24.75
2022-12-14T20:39:17.486Z,29.00
2022-12-14T20:44:22.149Z,23.25
2022-12-14T20:49:31.198Z,23.25
2022-12-14T20:54:35.728Z,21.00
2022-12-14T20:59:40.345Z,21.50
2022-12-14T21:04:44.900Z,20.00
2022-12-14T21:09:48.942Z,21.00
2022-12-14T21:14:57.433Z,23.00
2022-12-14T21:20:01.582Z,19.50
2022-12-14T21:25:06.665Z,20.75
2022-12-14T21:30:12.603Z,18.00
2022-12-14T21:35:18.939Z,23.25
2022-12-14T21:40:41.350Z,15.00
2022-12-14T21:45:46.225Z,16.25
2022-12-14T21:50:50.842Z,19.25
2022-12-14T21:56:15.126Z,17.25
2022-12-14T22:01:20.148Z,14.75
2022-12-14T22:06:24.670Z,16.75
2022-12-14T22:11:29.762Z,17.00
2022-12-14T22:16:35.193Z,17.25
2022-12-14T22:21:42.832Z,16.25
2022-12-14T22:26:47.393Z,13.50
2022-12-14T22:31:52.712Z,19.00
2022-12-14T22:36:57.292Z,13.50
2022-12-14T22:42:02.256Z,14.50
2022-12-14T22:47:07.017Z,14.00
2022-12-14T22:52:11.684Z,16.75
2022-12-14T22:57:19.223Z,14.00
2022-12-14T23:02:24.915Z,13.25
2022-12-14T23:07:29.780Z,14.50
2022-12-14T23:12:52.366Z,13.75
2022-12-14T23:18:20.344Z,16.00
2022-12-14T23:23:43.267Z,14.50
2022-12-14T23:29:05.923Z,15.50
2022-12-14T23:34:28.860Z,14.25
2022-12-14T23:39:51.765Z,17.25
2022-12-14T23:45:14.362Z,14.25
2022-12-14T23:50:37.243Z,12.75
2022-12-14T23:55:59.846Z,14.00
